GB-0203 weather

Westonzoyland Microlight
Bridgewater, England, United Kingdom

Public forecast

Using degrees Celsius for public forecast. Weather courtesy of forecast.io.

METAR (pilot weather report)

Closest report is RNAS Yeovilton, 11.9 nm (22.0 km) ESE. Retrieved 2019/09/23 18:50 UTC (25 minutes ago):

EGDY 231850Z 19010KT 3500 -RADZ FEW006 SCT007 BKN009 17/16 Q1006 TEMPO 2000 RADZ BKN007 RMK YLO1 TEMPO YLO2

TAF (pilot weather forecast)

Forecast is more than 12 hours old.

Closest forecast is RNAS Yeovilton, 11.9 nm (22.0 km) ESE. Retrieved 2019/05/01 18:06 UTC (5 months ago):

TAF TAF EGDY 010100Z 3018/0103 CNL